sensor_id;sensor_type;location;lat;lon;timestamp;P1;durP1;ratioP1;P2;durP2;ratioP2
62121;SDS011;48108;47.532;19.084;2023-09-08T04:10:27;8.48;;;4.75;;
62121;SDS011;48108;47.532;19.084;2023-09-08T04:13:31;5.43;;;4.25;;
62121;SDS011;48108;47.532;19.084;2023-09-08T04:16:35;6.68;;;4.15;;
62121;SDS011;48108;47.532;19.084;2023-09-08T04:19:38;9.48;;;5.15;;
62121;SDS011;48108;47.532;19.084;2023-09-08T04:22:42;7.70;;;4.50;;
62121;SDS011;48108;47.532;19.084;2023-09-08T04:25:46;5.78;;;4.28;;
62121;SDS011;48108;47.532;19.084;2023-09-08T04:28:51;5.80;;;4.22;;
62121;SDS011;48108;47.532;19.084;2023-09-08T04:31:54;8.85;;;4.72;;
62121;SDS011;48108;47.532;19.084;2023-09-08T04:34:58;8.23;;;4.55;;
62121;SDS011;48108;47.532;19.084;2023-09-08T04:38:01;6.55;;;4.12;;
62121;SDS011;48108;47.532;19.084;2023-09-08T04:41:07;9.27;;;4.40;;
62121;SDS011;48108;47.532;19.084;2023-09-08T04:44:10;5.80;;;4.37;;
62121;SDS011;48108;47.532;19.084;2023-09-08T04:47:14;7.40;;;4.60;;
62121;SDS011;48108;47.532;19.084;2023-09-08T04:50:17;7.90;;;4.82;;
62121;SDS011;48108;47.532;19.084;2023-09-08T04:53:21;8.63;;;5.30;;
62121;SDS011;48108;47.532;19.084;2023-09-08T04:56:24;8.88;;;5.03;;
62121;SDS011;48108;47.532;19.084;2023-09-08T04:59:27;17.83;;;4.78;;
62121;SDS011;48108;47.532;19.084;2023-09-08T05:02:30;9.13;;;5.43;;
62121;SDS011;48108;47.532;19.084;2023-09-08T05:05:34;6.55;;;4.75;;
62121;SDS011;48108;47.532;19.084;2023-09-08T05:08:37;9.15;;;4.90;;
62121;SDS011;48108;47.532;19.084;2023-09-08T05:11:41;8.68;;;4.57;;
62121;SDS011;48108;47.532;19.084;2023-09-08T05:14:44;7.93;;;4.65;;
62121;SDS011;48108;47.532;19.084;2023-09-08T05:17:48;7.40;;;5.20;;
62121;SDS011;48108;47.532;19.084;2023-09-08T05:20:51;8.60;;;5.18;;
62121;SDS011;48108;47.532;19.084;2023-09-08T05:23:54;6.18;;;4.82;;
62121;SDS011;48108;47.532;19.084;2023-09-08T05:26:57;6.97;;;4.50;;
62121;SDS011;48108;47.532;19.084;2023-09-08T05:30:01;7.80;;;5.03;;
62121;SDS011;48108;47.532;19.084;2023-09-08T05:33:06;8.38;;;4.85;;
62121;SDS011;48108;47.532;19.084;2023-09-08T05:36:10;8.32;;;4.82;;
62121;SDS011;48108;47.532;19.084;2023-09-08T05:39:17;10.27;;;5.35;;
62121;SDS011;48108;47.532;19.084;2023-09-08T05:42:22;9.02;;;4.87;;
62121;SDS011;48108;47.532;19.084;2023-09-08T05:45:25;9.00;;;5.22;;
62121;SDS011;48108;47.532;19.084;2023-09-08T05:48:28;10.25;;;5.90;;
62121;SDS011;48108;47.532;19.084;2023-09-08T05:51:32;9.55;;;5.45;;
62121;SDS011;48108;47.532;19.084;2023-09-08T05:54:36;9.43;;;5.43;;
62121;SDS011;48108;47.532;19.084;2023-09-08T05:57:39;8.60;;;5.28;;
62121;SDS011;48108;47.532;19.084;2023-09-08T06:00:43;9.48;;;5.32;;
62121;SDS011;48108;47.532;19.084;2023-09-08T06:03:48;10.00;;;5.43;;
62121;SDS011;48108;47.532;19.084;2023-09-08T06:06:51;8.32;;;5.20;;
62121;SDS011;48108;47.532;19.084;2023-09-08T06:09:55;10.35;;;5.80;;
62121;SDS011;48108;47.532;19.084;2023-09-08T06:12:58;9.73;;;5.20;;
62121;SDS011;48108;47.532;19.084;2023-09-08T06:16:02;9.07;;;5.30;;
62121;SDS011;48108;47.532;19.084;2023-09-08T06:19:05;11.73;;;5.05;;
62121;SDS011;48108;47.532;19.084;2023-09-08T06:22:09;9.00;;;5.40;;
62121;SDS011;48108;47.532;19.084;2023-09-08T06:25:12;9.48;;;5.03;;
62121;SDS011;48108;47.532;19.084;2023-09-08T06:28:16;11.65;;;5.55;;
62121;SDS011;48108;47.532;19.084;2023-09-08T06:31:19;8.30;;;4.62;;
62121;SDS011;48108;47.532;19.084;2023-09-08T06:34:23;8.80;;;5.05;;
62121;SDS011;48108;47.532;19.084;2023-09-08T06:37:26;10.55;;;5.60;;
62121;SDS011;48108;47.532;19.084;2023-09-08T06:40:30;7.40;;;4.70;;
62121;SDS011;48108;47.532;19.084;2023-09-08T06:43:32;5.95;;;4.25;;
62121;SDS011;48108;47.532;19.084;2023-09-08T06:46:37;9.48;;;5.28;;
62121;SDS011;48108;47.532;19.084;2023-09-08T06:49:40;11.35;;;5.00;;
62121;SDS011;48108;47.532;19.084;2023-09-08T06:52:44;8.93;;;4.55;;
62121;SDS011;48108;47.532;19.084;2023-09-08T06:55:47;7.32;;;4.68;;
62121;SDS011;48108;47.532;19.084;2023-09-08T06:58:50;10.32;;;5.32;;
62121;SDS011;48108;47.532;19.084;2023-09-08T07:01:54;7.05;;;4.72;;
62121;SDS011;48108;47.532;19.084;2023-09-08T07:04:58;10.23;;;5.30;;
62121;SDS011;48108;47.532;19.084;2023-09-08T07:08:02;8.40;;;4.40;;
62121;SDS011;48108;47.532;19.084;2023-09-08T07:11:05;8.25;;;4.62;;
62121;SDS011;48108;47.532;19.084;2023-09-08T07:14:09;9.02;;;4.60;;
62121;SDS011;48108;47.532;19.084;2023-09-08T07:17:13;5.95;;;4.30;;
62121;SDS011;48108;47.532;19.084;2023-09-08T07:20:16;5.78;;;4.32;;
62121;SDS011;48108;47.532;19.084;2023-09-08T07:23:20;5.60;;;4.53;;
62121;SDS011;48108;47.532;19.084;2023-09-08T07:26:23;6.97;;;4.93;;
62121;SDS011;48108;47.532;19.084;2023-09-08T07:29:27;8.45;;;4.82;;
62121;SDS011;48108;47.532;19.084;2023-09-08T07:32:30;7.10;;;5.18;;
62121;SDS011;48108;47.532;19.084;2023-09-08T07:35:37;8.23;;;5.30;;
62121;SDS011;48108;47.532;19.084;2023-09-08T07:38:41;7.65;;;5.10;;
62121;SDS011;48108;47.532;19.084;2023-09-08T07:41:45;9.55;;;4.78;;
62121;SDS011;48108;47.532;19.084;2023-09-08T07:44:47;8.02;;;5.00;;
62121;SDS011;48108;47.532;19.084;2023-09-08T07:47:50;6.90;;;4.57;;
62121;SDS011;48108;47.532;19.084;2023-09-08T07:50:56;7.95;;;4.45;;
62121;SDS011;48108;47.532;19.084;2023-09-08T07:54:01;7.03;;;4.87;;
62121;SDS011;48108;47.532;19.084;2023-09-08T07:57:05;9.40;;;5.30;;
62121;SDS011;48108;47.532;19.084;2023-09-08T08:00:09;7.53;;;4.50;;
62121;SDS011;48108;47.532;19.084;2023-09-08T08:03:18;8.80;;;4.80;;
62121;SDS011;48108;47.532;19.084;2023-09-08T08:06:21;8.02;;;5.05;;
62121;SDS011;48108;47.532;19.084;2023-09-08T08:09:24;9.45;;;5.45;;
62121;SDS011;48108;47.532;19.084;2023-09-08T08:12:47;6.85;;;4.97;;
62121;SDS011;48108;47.532;19.084;2023-09-08T08:16:06;7.80;;;5.12;;
62121;SDS011;48108;47.532;19.084;2023-09-08T08:19:25;11.15;;;5.35;;
62121;SDS011;48108;47.532;19.084;2023-09-08T08:22:29;11.38;;;5.60;;
62121;SDS011;48108;47.532;19.084;2023-09-08T08:25:32;8.82;;;4.97;;
62121;SDS011;48108;47.532;19.084;2023-09-08T08:28:36;7.40;;;4.95;;
62121;SDS011;48108;47.532;19.084;2023-09-08T08:31:39;8.75;;;4.50;;
62121;SDS011;48108;47.532;19.084;2023-09-08T08:34:42;7.55;;;5.05;;
62121;SDS011;48108;47.532;19.084;2023-09-08T08:37:45;7.80;;;4.47;;
62121;SDS011;48108;47.532;19.084;2023-09-08T08:40:48;8.52;;;4.90;;
62121;SDS011;48108;47.532;19.084;2023-09-08T08:43:51;7.85;;;4.68;;
62121;SDS011;48108;47.532;19.084;2023-09-08T08:46:56;5.85;;;4.30;;
62121;SDS011;48108;47.532;19.084;2023-09-08T08:50:00;7.75;;;4.47;;
62121;SDS011;48108;47.532;19.084;2023-09-08T08:53:04;6.05;;;4.78;;
62121;SDS011;48108;47.532;19.084;2023-09-08T08:56:18;12.70;;;5.12;;
62121;SDS011;48108;47.532;19.084;2023-09-08T08:59:22;9.75;;;4.97;;
62121;SDS011;48108;47.532;19.084;2023-09-08T09:02:25;8.90;;;4.78;;
62121;SDS011;48108;47.532;19.084;2023-09-08T09:05:31;9.50;;;4.70;;
62121;SDS011;48108;47.532;19.084;2023-09-08T09:08:37;9.45;;;4.70;;
62121;SDS011;48108;47.532;19.084;2023-09-08T09:11:42;9.27;;;5.10;;
62121;SDS011;48108;47.532;19.084;2023-09-08T09:14:45;6.43;;;4.28;;
62121;SDS011;48108;47.532;19.084;2023-09-08T09:18:05;8.93;;;4.70;;
62121;SDS011;48108;47.532;19.084;2023-09-08T09:21:09;12.25;;;4.72;;
62121;SDS011;48108;47.532;19.084;2023-09-08T09:24:15;10.80;;;4.75;;
62121;SDS011;48108;47.532;19.084;2023-09-08T09:27:22;10.85;;;4.65;;
62121;SDS011;48108;47.532;19.084;2023-09-08T09:30:26;7.82;;;4.40;;
62121;SDS011;48108;47.532;19.084;2023-09-08T09:33:30;10.05;;;4.37;;
62121;SDS011;48108;47.532;19.084;2023-09-08T09:36:39;7.18;;;4.87;;
62121;SDS011;48108;47.532;19.084;2023-09-08T09:39:48;7.03;;;4.28;;
62121;SDS011;48108;47.532;19.084;2023-09-08T09:42:53;7.03;;;4.80;;
62121;SDS011;48108;47.532;19.084;2023-09-08T09:45:55;11.07;;;4.80;;
62121;SDS011;48108;47.532;19.084;2023-09-08T09:48:59;9.32;;;5.12;;
62121;SDS011;48108;47.532;19.084;2023-09-08T09:52:02;9.70;;;4.03;;
62121;SDS011;48108;47.532;19.084;2023-09-08T09:55:06;5.70;;;3.97;;
62121;SDS011;48108;47.532;19.084;2023-09-08T09:58:10;6.95;;;4.47;;
62121;SDS011;48108;47.532;19.084;2023-09-08T10:01:17;9.05;;;4.60;;
62121;SDS011;48108;47.532;19.084;2023-09-08T10:04:21;6.90;;;4.05;;
62121;SDS011;48108;47.532;19.084;2023-09-08T10:07:24;6.43;;;4.00;;
62121;SDS011;48108;47.532;19.084;2023-09-08T10:10:27;6.22;;;4.12;;
62121;SDS011;48108;47.532;19.084;2023-09-08T10:13:38;8.13;;;4.45;;
62121;SDS011;48108;47.532;19.084;2023-09-08T10:16:43;6.18;;;4.20;;
62121;SDS011;48108;47.532;19.084;2023-09-08T10:19:52;11.30;;;4.45;;
62121;SDS011;48108;47.532;19.084;2023-09-08T10:23:04;5.22;;;3.90;;
62121;SDS011;48108;47.532;19.084;2023-09-08T10:26:11;5.65;;;3.95;;
62121;SDS011;48108;47.532;19.084;2023-09-08T10:29:18;6.05;;;4.05;;
62121;SDS011;48108;47.532;19.084;2023-09-08T10:32:21;7.25;;;3.95;;
62121;SDS011;48108;47.532;19.084;2023-09-08T10:35:25;6.50;;;4.40;;
62121;SDS011;48108;47.532;19.084;2023-09-08T10:38:31;5.00;;;4.10;;
62121;SDS011;48108;47.532;19.084;2023-09-08T10:41:36;6.15;;;3.70;;
62121;SDS011;48108;47.532;19.084;2023-09-08T10:44:39;6.28;;;3.87;;
62121;SDS011;48108;47.532;19.084;2023-09-08T10:50:48;7.12;;;3.33;;
62121;SDS011;48108;47.532;19.084;2023-09-08T10:53:51;4.53;;;3.35;;
62121;SDS011;48108;47.532;19.084;2023-09-08T10:56:55;4.55;;;3.67;;
62121;SDS011;48108;47.532;19.084;2023-09-08T11:00:02;5.37;;;3.47;;
62121;SDS011;48108;47.532;19.084;2023-09-08T11:03:16;5.65;;;3.60;;
62121;SDS011;48108;47.532;19.084;2023-09-08T11:06:29;4.45;;;3.33;;
62121;SDS011;48108;47.532;19.084;2023-09-08T11:09:37;7.10;;;3.67;;
62121;SDS011;48108;47.532;19.084;2023-09-08T11:12:40;4.80;;;3.22;;
62121;SDS011;48108;47.532;19.084;2023-09-08T11:15:43;5.85;;;3.22;;
62121;SDS011;48108;47.532;19.084;2023-09-08T11:18:46;3.58;;;3.08;;
62121;SDS011;48108;47.532;19.084;2023-09-08T11:21:49;4.45;;;3.33;;
62121;SDS011;48108;47.532;19.084;2023-09-08T11:24:53;3.53;;;3.20;;
62121;SDS011;48108;47.532;19.084;2023-09-08T11:27:59;5.15;;;3.65;;
62121;SDS011;48108;47.532;19.084;2023-09-08T11:31:03;5.25;;;3.20;;
62121;SDS011;48108;47.532;19.084;2023-09-08T11:34:07;4.25;;;3.10;;
62121;SDS011;48108;47.532;19.084;2023-09-08T11:37:12;4.05;;;2.90;;
62121;SDS011;48108;47.532;19.084;2023-09-08T11:40:17;4.28;;;2.97;;
62121;SDS011;48108;47.532;19.084;2023-09-08T11:43:22;4.60;;;3.12;;
62121;SDS011;48108;47.532;19.084;2023-09-08T11:46:24;3.83;;;3.20;;
62121;SDS011;48108;47.532;19.084;2023-09-08T11:49:35;3.62;;;2.92;;
62121;SDS011;48108;47.532;19.084;2023-09-08T11:52:39;6.07;;;3.08;;
62121;SDS011;48108;47.532;19.084;2023-09-08T11:55:43;4.20;;;2.87;;
62121;SDS011;48108;47.532;19.084;2023-09-08T11:58:46;5.37;;;3.00;;
62121;SDS011;48108;47.532;19.084;2023-09-08T12:01:50;5.78;;;3.10;;
62121;SDS011;48108;47.532;19.084;2023-09-08T12:04:53;3.37;;;2.85;;
62121;SDS011;48108;47.532;19.084;2023-09-08T12:07:57;3.60;;;2.75;;
62121;SDS011;48108;47.532;19.084;2023-09-08T12:11:01;4.80;;;2.65;;
62121;SDS011;48108;47.532;19.084;2023-09-08T12:14:06;4.75;;;2.60;;
62121;SDS011;48108;47.532;19.084;2023-09-08T12:20:16;6.47;;;2.80;;
62121;SDS011;48108;47.532;19.084;2023-09-08T12:23:20;8.25;;;2.83;;
62121;SDS011;48108;47.532;19.084;2023-09-08T12:26:25;3.58;;;2.90;;
62121;SDS011;48108;47.532;19.084;2023-09-08T12:29:28;3.22;;;2.78;;
62121;SDS011;48108;47.532;19.084;2023-09-08T12:32:31;3.30;;;3.00;;
62121;SDS011;48108;47.532;19.084;2023-09-08T12:35:35;3.92;;;2.53;;
62121;SDS011;48108;47.532;19.084;2023-09-08T12:38:38;2.55;;;2.35;;
62121;SDS011;48108;47.532;19.084;2023-09-08T12:41:41;3.65;;;2.65;;
62121;SDS011;48108;47.532;19.084;2023-09-08T12:44:44;3.47;;;2.60;;
62121;SDS011;48108;47.532;19.084;2023-09-08T12:47:47;4.50;;;2.70;;
62121;SDS011;48108;47.532;19.084;2023-09-08T12:50:50;4.10;;;2.72;;
62121;SDS011;48108;47.532;19.084;2023-09-08T12:53:53;4.47;;;2.83;;
62121;SDS011;48108;47.532;19.084;2023-09-08T12:56:56;2.62;;;2.40;;
62121;SDS011;48108;47.532;19.084;2023-09-08T12:59:59;5.97;;;2.72;;
62121;SDS011;48108;47.532;19.084;2023-09-08T13:03:02;4.40;;;2.55;;
62121;SDS011;48108;47.532;19.084;2023-09-08T13:06:08;4.45;;;2.75;;
62121;SDS011;48108;47.532;19.084;2023-09-08T13:09:11;2.80;;;2.58;;
62121;SDS011;48108;47.532;19.084;2023-09-08T13:12:14;6.18;;;2.60;;
62121;SDS011;48108;47.532;19.084;2023-09-08T13:15:17;3.55;;;2.30;;
62121;SDS011;48108;47.532;19.084;2023-09-08T13:18:20;3.50;;;2.60;;
62121;SDS011;48108;47.532;19.084;2023-09-08T13:21:22;3.53;;;2.70;;
62121;SDS011;48108;47.532;19.084;2023-09-08T13:24:26;3.33;;;2.62;;
62121;SDS011;48108;47.532;19.084;2023-09-08T13:27:28;3.10;;;2.67;;
62121;SDS011;48108;47.532;19.084;2023-09-08T13:30:31;3.50;;;2.53;;
62121;SDS011;48108;47.532;19.084;2023-09-08T13:33:34;2.83;;;2.62;;
62121;SDS011;48108;47.532;19.084;2023-09-08T13:36:37;3.85;;;2.30;;
62121;SDS011;48108;47.532;19.084;2023-09-08T13:39:40;18.10;;;3.62;;
62121;SDS011;48108;47.532;19.084;2023-09-08T13:42:43;4.90;;;2.40;;
62121;SDS011;48108;47.532;19.084;2023-09-08T13:45:47;7.37;;;2.62;;
62121;SDS011;48108;47.532;19.084;2023-09-08T13:48:50;3.55;;;2.50;;
62121;SDS011;48108;47.532;19.084;2023-09-08T13:51:55;4.93;;;2.42;;
62121;SDS011;48108;47.532;19.084;2023-09-08T13:54:59;3.25;;;2.47;;
62121;SDS011;48108;47.532;19.084;2023-09-08T13:58:22;4.32;;;2.80;;
62121;SDS011;48108;47.532;19.084;2023-09-08T14:01:28;2.83;;;2.30;;
62121;SDS011;48108;47.532;19.084;2023-09-08T14:04:36;2.50;;;2.30;;
62121;SDS011;48108;47.532;19.084;2023-09-08T14:07:43;3.70;;;2.83;;
62121;SDS011;48108;47.532;19.084;2023-09-08T14:10:53;3.22;;;2.80;;
62121;SDS011;48108;47.532;19.084;2023-09-08T14:13:59;3.12;;;2.62;;
62121;SDS011;48108;47.532;19.084;2023-09-08T14:17:02;3.62;;;2.78;;
62121;SDS011;48108;47.532;19.084;2023-09-08T14:20:07;3.58;;;2.83;;
62121;SDS011;48108;47.532;19.084;2023-09-08T14:23:11;4.22;;;2.90;;
62121;SDS011;48108;47.532;19.084;2023-09-08T14:26:14;4.65;;;2.78;;
62121;SDS011;48108;47.532;19.084;2023-09-08T14:29:17;3.45;;;3.12;;
62121;SDS011;48108;47.532;19.084;2023-09-08T14:32:20;4.40;;;3.30;;
62121;SDS011;48108;47.532;19.084;2023-09-08T14:35:23;4.37;;;3.00;;
62121;SDS011;48108;47.532;19.084;2023-09-08T14:38:26;4.22;;;2.90;;
62121;SDS011;48108;47.532;19.084;2023-09-08T14:41:29;6.03;;;3.30;;
62121;SDS011;48108;47.532;19.084;2023-09-08T14:44:32;4.68;;;3.30;;
62121;SDS011;48108;47.532;19.084;2023-09-08T14:47:35;5.43;;;3.35;;
62121;SDS011;48108;47.532;19.084;2023-09-08T14:50:38;3.60;;;3.20;;
62121;SDS011;48108;47.532;19.084;2023-09-08T14:53:42;4.93;;;3.55;;
62121;SDS011;48108;47.532;19.084;2023-09-08T14:56:46;8.32;;;3.55;;
62121;SDS011;48108;47.532;19.084;2023-09-08T14:59:49;6.62;;;3.28;;
62121;SDS011;48108;47.532;19.084;2023-09-08T15:02:58;6.80;;;3.50;;
62121;SDS011;48108;47.532;19.084;2023-09-08T15:06:02;7.93;;;3.62;;
62121;SDS011;48108;47.532;19.084;2023-09-08T15:09:05;3.40;;;3.10;;
62121;SDS011;48108;47.532;19.084;2023-09-08T15:12:08;4.72;;;3.37;;
62121;SDS011;48108;47.532;19.084;2023-09-08T15:15:11;4.40;;;3.53;;
62121;SDS011;48108;47.532;19.084;2023-09-08T15:18:14;4.82;;;3.35;;
62121;SDS011;48108;47.532;19.084;2023-09-08T15:21:19;6.45;;;3.53;;
62121;SDS011;48108;47.532;19.084;2023-09-08T15:24:28;8.30;;;3.92;;
62121;SDS011;48108;47.532;19.084;2023-09-08T15:27:31;4.87;;;3.42;;
62121;SDS011;48108;47.532;19.084;2023-09-08T15:30:34;5.65;;;3.33;;
62121;SDS011;48108;47.532;19.084;2023-09-08T15:33:37;6.20;;;3.28;;
62121;SDS011;48108;47.532;19.084;2023-09-08T15:36:40;4.90;;;3.40;;
62121;SDS011;48108;47.532;19.084;2023-09-08T15:39:44;3.75;;;3.28;;
62121;SDS011;48108;47.532;19.084;2023-09-08T15:42:47;4.53;;;3.62;;
62121;SDS011;48108;47.532;19.084;2023-09-08T15:45:52;5.65;;;3.37;;
62121;SDS011;48108;47.532;19.084;2023-09-08T15:48:56;3.60;;;3.20;;
62121;SDS011;48108;47.532;19.084;2023-09-08T15:51:59;5.05;;;3.60;;
62121;SDS011;48108;47.532;19.084;2023-09-08T15:55:17;4.32;;;3.50;;
62121;SDS011;48108;47.532;19.084;2023-09-08T15:58:20;4.35;;;3.22;;
62121;SDS011;48108;47.532;19.084;2023-09-08T16:01:24;3.95;;;3.20;;
62121;SDS011;48108;47.532;19.084;2023-09-08T16:04:27;6.80;;;3.45;;
62121;SDS011;48108;47.532;19.084;2023-09-08T16:07:30;5.53;;;3.40;;
62121;SDS011;48108;47.532;19.084;2023-09-08T16:10:33;4.72;;;3.30;;
62121;SDS011;48108;47.532;19.084;2023-09-08T16:13:36;5.37;;;4.35;;
62121;SDS011;48108;47.532;19.084;2023-09-08T16:16:40;8.20;;;3.67;;
62121;SDS011;48108;47.532;19.084;2023-09-08T16:19:43;7.68;;;3.70;;
62121;SDS011;48108;47.532;19.084;2023-09-08T16:22:46;5.30;;;3.40;;
62121;SDS011;48108;47.532;19.084;2023-09-08T16:25:50;6.62;;;3.92;;
62121;SDS011;48108;47.532;19.084;2023-09-08T16:28:53;5.25;;;3.70;;
62121;SDS011;48108;47.532;19.084;2023-09-08T16:31:56;6.75;;;3.75;;
62121;SDS011;48108;47.532;19.084;2023-09-08T16:34:59;6.57;;;4.05;;
62121;SDS011;48108;47.532;19.084;2023-09-08T16:38:02;8.02;;;4.20;;
62121;SDS011;48108;47.532;19.084;2023-09-08T16:41:06;5.18;;;3.30;;
62121;SDS011;48108;47.532;19.084;2023-09-08T16:44:08;7.50;;;3.83;;
62121;SDS011;48108;47.532;19.084;2023-09-08T16:47:12;5.35;;;3.50;;
62121;SDS011;48108;47.532;19.084;2023-09-08T16:50:14;7.68;;;3.20;;
62121;SDS011;48108;47.532;19.084;2023-09-08T16:53:18;5.22;;;3.35;;
62121;SDS011;48108;47.532;19.084;2023-09-08T16:56:21;5.95;;;3.58;;
62121;SDS011;48108;47.532;19.084;2023-09-08T16:59:24;8.38;;;3.78;;
62121;SDS011;48108;47.532;19.084;2023-09-08T17:02:27;5.07;;;3.60;;
62121;SDS011;48108;47.532;19.084;2023-09-08T17:05:32;5.70;;;3.65;;
62121;SDS011;48108;47.532;19.084;2023-09-08T17:08:34;7.05;;;4.50;;
62121;SDS011;48108;47.532;19.084;2023-09-08T17:11:37;6.15;;;3.90;;
62121;SDS011;48108;47.532;19.084;2023-09-08T17:14:42;6.50;;;3.78;;
62121;SDS011;48108;47.532;19.084;2023-09-08T17:17:45;7.55;;;3.70;;
62121;SDS011;48108;47.532;19.084;2023-09-08T17:20:48;6.12;;;3.65;;
62121;SDS011;48108;47.532;19.084;2023-09-08T17:23:51;8.45;;;4.37;;
62121;SDS011;48108;47.532;19.084;2023-09-08T17:26:55;7.55;;;4.12;;
